createdAt,value
2022-11-09T00:00:56.353Z,12.86
2022-11-09T00:05:59.131Z,12.84
2022-11-09T00:11:08.692Z,12.86
2022-11-09T00:16:12.650Z,12.86
2022-11-09T00:21:20.004Z,12.90
2022-11-09T00:26:22.102Z,12.92
2022-11-09T00:31:24.872Z,12.95
2022-11-09T00:36:27.985Z,12.96
2022-11-09T00:41:29.907Z,12.93
2022-11-09T00:46:31.790Z,12.92
2022-11-09T00:51:34.258Z,12.96
2022-11-09T00:56:36.732Z,12.99
2022-11-09T01:01:39.014Z,12.91
2022-11-09T01:06:41.014Z,12.88
2022-11-09T01:11:45.063Z,12.87
2022-11-09T01:16:47.843Z,12.88
2022-11-09T01:21:49.880Z,12.88
2022-11-09T01:26:51.824Z,12.88
2022-11-09T01:31:56.085Z,12.88
2022-11-09T01:36:57.867Z,12.84
2022-11-09T01:41:59.964Z,12.79
2022-11-09T01:47:05.631Z,12.77
2022-11-09T01:52:14.856Z,12.72
2022-11-09T01:57:24.719Z,12.72
2022-11-09T02:02:27.588Z,12.66
2022-11-09T02:07:29.593Z,12.69
2022-11-09T02:12:34.161Z,12.71
2022-11-09T02:17:35.959Z,12.68
2022-11-09T02:22:38.088Z,12.65
2022-11-09T02:27:41.099Z,12.61
2022-11-09T02:32:43.180Z,12.58
2022-11-09T02:37:48.753Z,12.52
2022-11-09T02:42:51.265Z,12.54
2022-11-09T02:47:53.226Z,12.47
2022-11-09T02:52:55.241Z,12.49
2022-11-09T02:57:58.432Z,12.45
2022-11-09T03:03:00.747Z,12.41
2022-11-09T03:08:02.788Z,12.39
2022-11-09T03:13:08.307Z,12.38
2022-11-09T03:18:10.349Z,12.37
2022-11-09T03:23:12.779Z,12.35
2022-11-09T03:28:15.712Z,12.31
2022-11-09T03:33:19.519Z,12.32
2022-11-09T03:38:21.695Z,12.33
2022-11-09T03:43:24.924Z,12.26
2022-11-09T03:48:26.801Z,12.32
2022-11-09T03:53:28.686Z,12.33
2022-11-09T03:58:30.626Z,12.25
2022-11-09T04:03:32.448Z,12.36
2022-11-09T04:08:34.279Z,12.34
2022-11-09T04:13:36.168Z,12.32
2022-11-09T04:18:38.061Z,12.33
2022-11-09T04:23:39.968Z,12.22
2022-11-09T04:28:41.870Z,12.22
2022-11-09T04:33:43.756Z,12.19
2022-11-09T04:38:45.704Z,12.13
2022-11-09T04:43:47.588Z,12.15
2022-11-09T04:48:49.497Z,12.11
2022-11-09T04:53:51.557Z,12.12
2022-11-09T04:58:53.633Z,12.12
2022-11-09T05:03:55.524Z,12.09
2022-11-09T05:08:58.330Z,12.13
2022-11-09T05:14:00.591Z,12.11
2022-11-09T05:19:02.449Z,12.08
2022-11-09T05:24:04.789Z,12.12
2022-11-09T05:29:09.940Z,12.10
2022-11-09T05:34:13.301Z,12.06
2022-11-09T05:39:15.324Z,12.05
2022-11-09T05:44:17.171Z,12.00
2022-11-09T05:49:18.986Z,11.97
2022-11-09T05:54:20.972Z,11.96
2022-11-09T05:59:22.840Z,11.95
2022-11-09T06:04:24.672Z,12.01
2022-11-09T06:09:26.526Z,12.05
2022-11-09T06:14:28.398Z,12.08
2022-11-09T06:19:30.173Z,12.10
2022-11-09T06:24:32.109Z,12.14
2022-11-09T06:29:34.055Z,12.17
2022-11-09T06:34:35.952Z,12.16
2022-11-09T06:39:37.712Z,12.12
2022-11-09T06:44:39.613Z,12.13
2022-11-09T06:49:41.435Z,12.06
2022-11-09T06:54:43.311Z,12.00
2022-11-09T06:59:45.181Z,12.02
2022-11-09T07:04:47.307Z,12.01
2022-11-09T07:09:49.203Z,12.02
2022-11-09T07:14:51.296Z,12.00
2022-11-09T07:19:53.203Z,11.91
2022-11-09T07:24:56.012Z,11.97
2022-11-09T07:29:57.902Z,11.95
2022-11-09T07:34:59.789Z,11.98
2022-11-09T07:40:01.712Z,11.98
2022-11-09T07:45:03.801Z,11.97
2022-11-09T07:50:06.175Z,12.00
2022-11-09T07:55:08.608Z,11.97
2022-11-09T08:00:11.721Z,12.00
2022-11-09T08:05:13.972Z,12.08
2022-11-09T08:10:16.112Z,12.04
2022-11-09T08:15:18.093Z,12.03
2022-11-09T08:20:20.651Z,12.10
2022-11-09T08:25:22.662Z,12.14
2022-11-09T08:30:25.024Z,12.26
2022-11-09T08:35:27.524Z,12.30
2022-11-09T08:40:29.980Z,12.35
2022-11-09T08:45:36.320Z,12.39
2022-11-09T08:50:38.359Z,12.39
2022-11-09T08:55:40.319Z,12.40
2022-11-09T09:00:42.316Z,12.35
2022-11-09T09:05:44.529Z,12.23
2022-11-09T09:10:46.539Z,12.34
2022-11-09T09:15:49.290Z,12.24
2022-11-09T09:20:51.700Z,12.23
2022-11-09T09:25:57.685Z,12.22
2022-11-09T09:31:01.727Z,12.18
2022-11-09T09:36:03.961Z,12.19
2022-11-09T09:41:07.157Z,12.18
2022-11-09T09:46:28.956Z,12.11
2022-11-09T09:51:42.122Z,12.12
2022-11-09T09:56:46.165Z,12.09
2022-11-09T10:01:49.205Z,12.05
2022-11-09T10:07:15.188Z,12.06
2022-11-09T10:12:22.684Z,12.06
2022-11-09T10:17:41.638Z,11.99
2022-11-09T10:22:51.707Z,12.04
2022-11-09T10:27:56.807Z,12.04
2022-11-09T10:33:10.714Z,12.10
2022-11-09T10:38:26.433Z,12.16
2022-11-09T10:43:46.954Z,12.19
2022-11-09T10:49:21.384Z,12.20
2022-11-09T10:54:41.890Z,12.30
2022-11-09T11:00:02.624Z,12.50
2022-11-09T11:05:26.496Z,12.67
2022-11-09T11:10:47.072Z,12.72
2022-11-09T11:16:32.571Z,12.76
2022-11-09T11:22:11.371Z,12.99
2022-11-09T11:27:43.687Z,13.01
2022-11-09T11:33:15.527Z,13.03
2022-11-09T11:38:40.001Z,13.15
2022-11-09T11:44:24.666Z,13.22
2022-11-09T11:50:09.057Z,13.33
2022-11-09T11:55:47.670Z,13.34
2022-11-09T12:01:35.884Z,13.30
2022-11-09T12:07:26.633Z,13.47
2022-11-09T12:13:08.540Z,13.48
2022-11-09T12:18:41.855Z,13.47
2022-11-09T12:24:26.804Z,13.46
2022-11-09T12:30:13.152Z,13.68
2022-11-09T12:35:41.252Z,13.75
2022-11-09T12:41:08.401Z,13.89
2022-11-09T12:46:34.446Z,14.01
2022-11-09T12:51:58.836Z,13.85
2022-11-09T12:57:25.372Z,13.97
2022-11-09T13:03:00.773Z,13.99
2022-11-09T13:08:26.463Z,14.04
2022-11-09T13:13:47.627Z,14.20
2022-11-09T13:19:08.948Z,14.29
2022-11-09T13:24:35.043Z,14.32
2022-11-09T13:29:56.900Z,14.28
2022-11-09T13:35:41.896Z,14.13
2022-11-09T13:41:03.519Z,14.09
2022-11-09T13:46:32.013Z,14.05
2022-11-09T13:51:52.719Z,14.28
2022-11-09T13:57:13.935Z,14.59
2022-11-09T14:02:34.149Z,14.78
2022-11-09T14:07:56.006Z,14.72
2022-11-09T14:13:36.240Z,14.53
2022-11-09T14:19:07.702Z,14.49
2022-11-09T14:24:30.909Z,14.48
2022-11-09T14:30:01.102Z,14.52
2022-11-09T14:35:34.329Z,14.60
2022-11-09T14:40:55.558Z,14.63
2022-11-09T14:46:19.608Z,14.50
2022-11-09T14:51:40.740Z,14.46
2022-11-09T14:57:02.271Z,14.53
2022-11-09T15:02:24.214Z,14.47
2022-11-09T15:07:47.370Z,14.37
2022-11-09T15:13:07.989Z,14.22
2022-11-09T15:18:33.727Z,14.08
2022-11-09T15:24:15.642Z,14.06
2022-11-09T15:29:39.502Z,14.03
2022-11-09T15:35:00.175Z,14.12
2022-11-09T15:40:23.208Z,13.99
2022-11-09T15:45:43.737Z,13.88
2022-11-09T15:51:04.013Z,13.77
2022-11-09T15:56:24.996Z,13.70
2022-11-09T16:01:45.583Z,13.60
2022-11-09T16:07:06.811Z,13.54
2022-11-09T16:12:27.475Z,13.40
2022-11-09T16:17:50.443Z,13.25
2022-11-09T16:23:10.899Z,13.27
2022-11-09T16:28:31.341Z,13.16
2022-11-09T16:33:51.899Z,13.10
2022-11-09T16:39:18.554Z,13.06
2022-11-09T16:44:40.403Z,12.94
2022-11-09T16:50:00.892Z,12.80
2022-11-09T16:55:21.362Z,12.69
2022-11-09T17:06:27.495Z,12.57
2022-11-09T17:11:48.146Z,12.46
2022-11-09T17:17:08.585Z,12.48
2022-11-09T17:22:29.358Z,12.42
2022-11-09T17:27:51.057Z,12.35
2022-11-09T17:33:11.363Z,12.27
2022-11-09T17:38:31.930Z,12.25
2022-11-09T17:43:52.744Z,12.21
2022-11-09T17:49:13.211Z,12.15
2022-11-09T17:54:37.013Z,12.20
2022-11-09T17:59:59.570Z,12.11
2022-11-09T18:05:20.286Z,11.99
2022-11-09T18:10:43.603Z,11.93
2022-11-09T18:16:17.707Z,11.89
2022-11-09T18:21:38.436Z,11.82
2022-11-09T18:26:59.642Z,11.70
2022-11-09T18:32:20.126Z,11.70
2022-11-09T18:37:40.654Z,11.76
2022-11-09T18:43:01.302Z,11.77
2022-11-09T18:48:22.333Z,11.77
2022-11-09T18:53:45.018Z,11.77
2022-11-09T18:59:05.469Z,11.65
2022-11-09T19:04:25.871Z,11.64
2022-11-09T19:09:46.003Z,11.61
2022-11-09T19:15:07.052Z,11.52
2022-11-09T19:20:28.747Z,11.47
2022-11-09T19:25:50.307Z,11.38
2022-11-09T19:31:14.799Z,11.28
2022-11-09T19:36:35.380Z,11.27
2022-11-09T19:41:56.217Z,11.29
2022-11-09T19:47:17.750Z,11.27
2022-11-09T19:52:38.920Z,11.02
2022-11-09T19:57:59.304Z,11.07
2022-11-09T20:03:20.138Z,11.02
2022-11-09T20:08:41.057Z,10.98
2022-11-09T20:14:02.517Z,10.96
2022-11-09T20:19:23.934Z,10.88
2022-11-09T20:24:44.601Z,10.83
2022-11-09T20:30:06.162Z,10.81
2022-11-09T20:35:26.461Z,10.79
2022-11-09T20:40:54.791Z,10.63
2022-11-09T20:46:18.315Z,10.55
2022-11-09T20:51:39.504Z,10.49
2022-11-09T20:57:00.175Z,10.50
2022-11-09T21:02:20.856Z,10.45
2022-11-09T21:07:41.524Z,10.46
2022-11-09T21:13:01.583Z,10.50
2022-11-09T21:18:22.518Z,10.47
2022-11-09T21:24:02.298Z,10.40
2022-11-09T21:29:43.251Z,10.33
2022-11-09T21:35:03.897Z,10.30
2022-11-09T21:40:24.890Z,10.26
2022-11-09T21:45:49.912Z,10.23
2022-11-09T21:51:10.587Z,10.19
2022-11-09T21:56:31.686Z,10.14
2022-11-09T22:01:53.011Z,10.03
2022-11-09T22:07:13.728Z,9.93
2022-11-09T22:12:52.991Z,9.88
2022-11-09T22:18:33.422Z,9.79
2022-11-09T22:23:53.910Z,9.63
2022-11-09T22:29:14.300Z,9.75
2022-11-09T22:34:34.634Z,9.74
2022-11-09T22:39:55.092Z,9.69
2022-11-09T22:45:15.680Z,9.67
2022-11-09T22:50:37.127Z,9.72
2022-11-09T22:55:59.119Z,9.65
2022-11-09T23:01:20.671Z,9.71
2022-11-09T23:06:41.105Z,9.68
2022-11-09T23:12:01.724Z,9.62
2022-11-09T23:17:41.043Z,9.60
2022-11-09T23:23:01.244Z,9.51
2022-11-09T23:28:22.192Z,9.48
2022-11-09T23:33:43.224Z,9.51
2022-11-09T23:39:04.191Z,9.46
2022-11-09T23:44:24.458Z,9.44
2022-11-09T23:49:44.618Z,9.32
2022-11-09T23:55:05.542Z,9.32
